aviador You're here:

LDPL Decoded Metar

PULA in CROATIA
Report Time2018-01-22 01:30:00
UTC Time2018-01-22 02:01:38
Flight Rules vfr VFR
Wind100° at 08 kt
W.Decomp.*RWY 09: 7.9 kt HW 1.0 kt RCW
W.Rank100° ranks 7
Current wind is above 100° avg. (6.4)
Visibility9999 m
Phenomena:N/A
Clouds:N/A
Expected CloudBase > 2,400 ft AGL from Temp-Dew spread
CeilingNone
Temp04°C (ISA -11)
Dew Point-2°C (65% RH)
AAT-1.1°C
QNH1015 hPa
Density Alt-1,070 ft
Elevation207 ft
Report Wrong Elevation
Raw Report
LDPL 220130Z AUTO 10008KT CAVOK 04/M02 Q1015=

Extra information for LDPL:More info

Metar Taf Metar & Taf Last 4 Metars F.Rules Stats Wind Profile Meteogram Temp Stats Airport Information Weather charts Add Link Nearby VenuesMetar ALERT Operation Metar Decoded Social comments